Time;durP1;ratioP1;P1;durP2;ratioP2;P2;SDS_P1;SDS_P2;PMS_P1;PMS_P2;Temp;Humidity;BMP_temperature;BMP_pressure;BME280_temperature;BME280_humidity;BME280_pressure;Samples;Min_cycle;Max_cycle;Signal;HPM_P1;HPM_P2
2022/07/30 00:00:34;;;;;;;5.75;3.85;;;;;;;26.80;43.75;101627.09;5056635;28;20430;-66
2022/07/30 00:03:00;;;;;;;6.68;3.70;;;;;;;26.82;43.75;101627.03;5061065;28;20059;-65
2022/07/30 00:05:25;;;;;;;5.88;3.83;;;;;;;26.80;43.75;101628.91;5061656;28;20040;-65
2022/07/30 00:07:50;;;;;;;4.75;3.80;;;;;;;26.80;43.53;101636.91;5039602;28;20068;-66
2022/07/30 00:10:16;;;;;;;5.57;3.65;;;;;;;26.80;43.46;101631.56;5066848;28;20020;-65
2022/07/30 00:12:41;;;;;;;6.50;3.83;;;;;;;26.77;43.60;101627.25;5065503;28;20037;-66
2022/07/30 00:15:07;;;;;;;6.47;3.70;;;;;;;26.77;43.68;101624.56;5071948;28;20131;-65
2022/07/30 00:17:32;;;;;;;5.05;3.55;;;;;;;26.77;43.67;101621.00;5061002;28;20032;-65
2022/07/30 00:19:58;;;;;;;5.10;3.60;;;;;;;26.75;43.59;101623.75;5060808;28;20039;-66
2022/07/30 00:22:23;;;;;;;5.43;3.63;;;;;;;26.76;43.42;101616.59;5060104;28;20383;-66
2022/07/30 00:24:48;;;;;;;5.50;3.55;;;;;;;26.73;43.48;101614.03;5059201;28;20477;-65
2022/07/30 00:27:14;;;;;;;5.97;3.70;;;;;;;26.72;43.70;101618.50;5055916;28;20093;-66
2022/07/30 00:29:39;;;;;;;5.00;3.45;;;;;;;26.73;43.57;101611.34;5051904;28;20060;-65
2022/07/30 00:32:05;;;;;;;5.43;3.97;;;;;;;26.71;43.59;101618.59;5059523;28;20487;-65
2022/07/30 00:34:30;;;;;;;5.60;3.70;;;;;;;26.71;43.56;101613.25;5063522;28;20357;-65
2022/07/30 00:36:55;;;;;;;5.05;3.72;;;;;;;26.71;43.54;101616.78;5068163;28;20491;-65
2022/07/30 00:39:21;;;;;;;6.13;3.63;;;;;;;26.70;43.75;101620.41;5067108;28;20053;-66
2022/07/30 00:42:02;;;;;;;5.90;3.40;;;;;;;26.69;43.61;101624.00;5062390;28;20040;-65
2022/07/30 00:44:28;;;;;;;5.60;3.70;;;;;;;26.70;43.65;101625.75;5066728;28;20048;-65
2022/07/30 00:46:55;;;;;;;4.88;3.40;;;;;;;26.67;43.51;101631.22;5062371;28;20033;-65
2022/07/30 00:49:21;;;;;;;4.55;3.47;;;;;;;26.66;43.55;101616.09;5061647;28;20033;-66
2022/07/30 00:51:47;;;;;;;5.97;3.40;;;;;;;26.66;43.47;101621.44;5067575;28;20029;-66
2022/07/30 00:54:14;;;;;;;5.88;3.63;;;;;;;26.68;43.59;101616.91;5063310;28;20071;-66
2022/07/30 00:56:39;;;;;;;5.18;3.40;;;;;;;26.65;43.54;101617.88;5058545;28;20029;-66
2022/07/30 00:59:05;;;;;;;4.30;3.35;;;;;;;26.63;43.32;101606.41;5053816;28;20479;-65
2022/07/30 01:01:31;;;;;;;5.05;3.80;;;;;;;26.66;43.41;101608.94;5060862;28;20038;-65
2022/07/30 01:03:57;;;;;;;5.70;3.50;;;;;;;26.62;43.52;101618.03;5051702;28;20067;-65
2022/07/30 01:06:23;;;;;;;4.90;3.47;;;;;;;26.62;43.59;101614.47;5066464;28;20040;-65
2022/07/30 01:08:48;;;;;;;5.95;3.60;;;;;;;26.63;43.54;101609.06;5061757;28;20033;-65
2022/07/30 01:11:14;;;;;;;5.35;3.67;;;;;;;26.60;43.55;101611.88;5061253;28;20067;-65
2022/07/30 01:13:40;;;;;;;4.22;3.40;;;;;;;26.60;43.63;101605.66;5063157;28;20036;-66
2022/07/30 01:16:05;;;;;;;4.43;3.20;;;;;;;26.57;43.74;101601.31;5067677;28;20033;-65
2022/07/30 01:21:22;;;;;;;5.05;3.33;;;;;;;26.56;43.64;101601.38;5052581;28;20048;-65
2022/07/30 01:23:52;;;;;;;4.45;3.40;;;;;;;26.56;43.69;101601.38;5058685;28;20679;-65
2022/07/30 01:26:20;;;;;;;4.25;3.55;;;;;;;26.55;43.67;101607.66;5059495;28;20046;-66
2022/07/30 01:28:49;;;;;;;4.43;3.20;;;;;;;26.53;43.73;101598.84;5051232;28;20790;-66
2022/07/30 01:31:15;;;;;;;5.45;3.58;;;;;;;26.53;43.64;101601.50;5053914;28;20451;-65
2022/07/30 01:33:43;;;;;;;6.25;3.40;;;;;;;26.48;44.05;101596.31;5057774;28;20033;-65
2022/07/30 01:36:12;;;;;;;4.68;3.42;;;;;;;26.53;43.65;101590.81;5073757;28;20827;-65
2022/07/30 01:38:40;;;;;;;4.70;3.30;;;;;;;26.47;43.95;101596.41;5071660;28;20062;-65
2022/07/30 01:41:07;;;;;;;5.07;3.50;;;;;;;26.52;43.54;101600.63;5059360;28;20033;-65
2022/07/30 01:43:34;;;;;;;4.70;3.40;;;;;;;26.50;43.50;101597.16;5069984;28;20036;-66
2022/07/30 01:46:02;;;;;;;4.70;3.28;;;;;;;26.49;43.69;101598.06;5074762;28;20105;-66
2022/07/30 01:48:28;;;;;;;4.15;3.08;;;;;;;26.49;43.68;101591.84;5065694;28;20043;-65
2022/07/30 01:50:56;;;;;;;4.88;3.20;;;;;;;26.47;43.51;101599.94;5075103;28;20375;-65
2022/07/30 01:53:24;;;;;;;4.93;3.28;;;;;;;26.43;43.62;101609.03;5074671;28;20048;-65
2022/07/30 01:55:51;;;;;;;4.78;3.40;;;;;;;26.49;43.55;101605.22;5063254;28;20029;-66
2022/07/30 01:58:19;;;;;;;4.70;3.20;;;;;;;26.46;43.68;101602.69;5065167;28;20036;-65
2022/07/30 02:00:47;;;;;;;3.95;3.22;;;;;;;26.45;43.67;101599.13;5056293;28;20040;-65
2022/07/30 02:03:12;;;;;;;4.35;3.10;;;;;;;26.45;43.71;101598.28;5067797;28;20045;-66
2022/07/30 02:05:41;;;;;;;3.97;3.13;;;;;;;26.41;43.80;101596.66;5070366;28;20033;-65
2022/07/30 02:08:14;;;;;;;5.50;3.00;;;;;;;26.47;43.48;101602.59;5070499;28;20374;-65
2022/07/30 02:10:52;;;;;;;3.58;3.10;;;;;;;26.44;43.67;101594.72;5057117;28;20106;-65
2022/07/30 02:13:25;;;;;;;4.88;3.30;;;;;;;26.38;43.72;101591.44;5066180;28;20031;-65
2022/07/30 02:15:58;;;;;;;4.75;3.00;;;;;;;26.41;43.54;101597.50;5060374;28;20052;-66
2022/07/30 02:19:01;;;;;;;4.13;3.15;;;;;;;26.36;43.85;101599.50;5034659;28;20022;-66
2022/07/30 02:21:31;;;;;;;4.32;3.15;;;;;;;26.40;43.61;101597.59;5063607;28;20036;-65
2022/07/30 02:23:57;;;;;;;4.35;3.08;;;;;;;26.39;43.64;101596.72;5065298;28;20037;-66
2022/07/30 02:26:26;;;;;;;4.60;3.33;;;;;;;26.34;43.81;101595.16;5063235;28;20036;-65
2022/07/30 02:28:56;;;;;;;4.22;3.10;;;;;;;26.37;43.71;101595.03;5062396;28;20414;-65
2022/07/30 02:31:24;;;;;;;4.60;3.30;;;;;;;26.36;43.74;101599.50;5062829;28;20549;-65
2022/07/30 02:33:53;;;;;;;4.15;3.10;;;;;;;26.35;43.62;101596.91;5071828;28;20500;-65
2022/07/30 02:36:20;;;;;;;5.63;3.10;;;;;;;26.36;43.54;101598.63;5063237;28;20033;-65
2022/07/30 02:38:49;;;;;;;6.45;3.30;;;;;;;26.36;43.69;101604.84;5069614;28;20028;-65
2022/07/30 02:41:17;;;;;;;3.60;2.97;;;;;;;26.35;43.74;101602.25;5064854;28;20078;-66
2022/07/30 02:43:44;;;;;;;4.28;2.88;;;;;;;26.36;43.62;101595.97;5065469;28;20028;-65
2022/07/30 02:46:11;;;;;;;4.22;2.92;;;;;;;26.35;43.60;101596.91;5065604;28;20045;-65
2022/07/30 02:48:40;;;;;;;3.65;3.10;;;;;;;26.28;43.72;101585.59;5072645;28;20036;-65
2022/07/30 02:51:06;;;;;;;4.03;3.00;;;;;;;26.37;43.40;101590.56;5059995;28;20027;-65
2022/07/30 02:53:33;;;;;;;3.75;3.17;;;;;;;26.33;43.59;101590.75;5062108;28;20036;-66
2022/07/30 02:56:00;;;;;;;3.75;3.13;;;;;;;26.30;43.81;101581.03;5065151;28;20032;-65
2022/07/30 02:58:28;;;;;;;4.00;3.00;;;;;;;26.34;43.56;101581.81;5063710;28;20037;-65
2022/07/30 03:00:54;;;;;;;4.43;3.00;;;;;;;26.27;43.73;101585.66;5064262;28;20040;-65
2022/07/30 03:03:20;;;;;;;4.18;2.90;;;;;;;26.27;43.63;101589.19;5053611;28;20043;-65
2022/07/30 03:05:49;;;;;;;3.92;3.10;;;;;;;26.29;43.60;101591.81;5065087;28;20028;-65
2022/07/30 03:08:15;;;;;;;4.60;3.00;;;;;;;26.29;43.59;101606.03;5073771;28;20074;-65
2022/07/30 03:10:43;;;;;;;3.58;2.85;;;;;;;26.27;43.75;101601.69;5067327;28;20486;-65
2022/07/30 03:13:12;;;;;;;3.60;2.80;;;;;;;26.29;43.57;101599.84;5065801;28;20024;-65
2022/07/30 03:15:43;;;;;;;4.28;2.60;;;;;;;26.25;43.68;101602.63;5063959;28;20021;-65
2022/07/30 03:18:12;;;;;;;3.70;2.83;;;;;;;26.24;43.69;101600.00;5059832;28;20017;-65
2022/07/30 03:20:38;;;;;;;5.47;2.95;;;;;;;26.23;43.53;101601.78;5061494;28;20029;-66
2022/07/30 03:23:05;;;;;;;3.72;2.97;;;;;;;26.25;43.67;101597.28;5056573;28;20394;-65
2022/07/30 03:25:32;;;;;;;4.35;3.00;;;;;;;26.25;43.63;101591.94;5052933;28;20021;-65
2022/07/30 03:28:01;;;;;;;4.32;2.90;;;;;;;26.17;43.83;101593.13;5072253;28;20028;-65
2022/07/30 03:30:28;;;;;;;3.35;2.72;;;;;;;26.22;43.95;101589.34;5056816;28;20024;-65
2022/07/30 03:32:54;;;;;;;3.90;2.97;;;;;;;26.24;43.55;101583.97;5066299;28;20379;-65
2022/07/30 03:35:23;;;;;;;3.90;3.03;;;;;;;26.24;43.58;101590.19;5057705;28;20041;-65
2022/07/30 03:37:49;;;;;;;4.32;2.97;;;;;;;26.24;43.41;101590.19;5062917;28;20025;-65
2022/07/30 03:40:16;;;;;;;3.17;2.67;;;;;;;26.23;43.66;101584.84;5066486;28;20089;-65
2022/07/30 03:42:42;;;;;;;4.07;2.90;;;;;;;26.21;43.67;101587.59;5068987;28;20036;-65
2022/07/30 03:45:08;;;;;;;3.75;2.83;;;;;;;26.21;43.56;101592.97;5072098;28;20061;-65
2022/07/30 03:47:38;;;;;;;3.38;2.70;;;;;;;26.22;43.50;101586.69;5070940;28;20049;-65
2022/07/30 03:50:05;;;;;;;3.55;2.83;;;;;;;26.21;43.60;101582.25;5057502;28;20028;-65
2022/07/30 03:52:37;;;;;;;3.42;2.80;;;;;;;26.20;43.56;101585.00;5061776;28;20019;-65
2022/07/30 03:55:05;;;;;;;3.72;2.92;;;;;;;26.24;43.51;101589.31;5055213;28;20029;-65
2022/07/30 03:57:31;;;;;;;4.28;3.00;;;;;;;26.24;43.34;101590.19;5055978;28;20033;-65
2022/07/30 03:59:56;;;;;;;3.85;2.80;;;;;;;26.24;43.57;101591.97;5062323;28;20036;-65
2022/07/30 04:02:22;;;;;;;3.60;2.78;;;;;;;26.22;43.38;101594.69;5059657;28;20017;-65
2022/07/30 04:04:48;;;;;;;3.50;2.70;;;;;;;26.20;43.56;101599.22;5059088;28;20116;-65
2022/07/30 04:07:13;;;;;;;3.20;2.70;;;;;;;26.22;43.51;101604.53;5063999;28;20343;-65
2022/07/30 04:09:38;;;;;;;4.00;2.90;;;;;;;26.16;43.61;101604.75;5055391;28;20033;-65
2022/07/30 04:12:04;;;;;;;3.50;2.80;;;;;;;26.20;43.56;101617.06;5057029;28;20466;-65
2022/07/30 04:14:40;;;;;;;3.38;2.85;;;;;;;26.19;43.56;101615.31;5062153;28;20586;-65
2022/07/30 04:17:11;;;;;;;5.50;2.90;;;;;;;26.18;43.44;101611.78;5054025;28;20021;-65
2022/07/30 04:19:42;;;;;;;3.95;2.70;;;;;;;26.17;43.72;101618.03;5049449;28;20032;-65
2022/07/30 04:22:10;;;;;;;3.67;2.83;;;;;;;26.13;43.73;101620.91;5067695;28;21285;-65
2022/07/30 04:24:37;;;;;;;3.83;2.88;;;;;;;26.18;43.21;101616.25;5052004;28;20036;-65
2022/07/30 04:27:03;;;;;;;3.53;2.67;;;;;;;26.19;43.36;101618.00;5052135;28;20028;-66
2022/07/30 04:29:29;;;;;;;3.40;2.67;;;;;;;26.19;43.36;101618.88;5061243;28;20036;-66
2022/07/30 04:31:55;;;;;;;3.00;2.50;;;;;;;26.16;43.72;101618.13;5072328;28;20555;-65
2022/07/30 04:34:21;;;;;;;3.70;2.70;;;;;;;26.16;43.53;101621.69;5072268;28;20489;-65
2022/07/30 04:36:46;;;;;;;4.38;2.80;;;;;;;26.15;43.54;101619.94;5071665;28;20036;-65
2022/07/30 04:39:12;;;;;;;3.40;2.65;;;;;;;26.14;43.46;101618.19;5068168;28;20041;-65
2022/07/30 04:41:39;;;;;;;3.08;2.60;;;;;;;26.14;43.54;101619.97;5051715;28;20027;-65
2022/07/30 04:44:04;;;;;;;3.10;2.58;;;;;;;26.16;43.65;101626.16;5059800;28;20057;-66
2022/07/30 04:46:30;;;;;;;3.17;2.60;;;;;;;26.16;43.50;101627.03;5053508;28;20503;-65
2022/07/30 04:48:56;;;;;;;3.60;2.70;;;;;;;26.15;43.64;101638.63;5057063;28;20020;-65
2022/07/30 04:51:28;;;;;;;3.30;2.45;;;;;;;26.16;43.42;101634.16;5062586;28;20445;-65
2022/07/30 04:53:54;;;;;;;3.40;2.55;;;;;;;26.15;43.53;101635.97;5053802;28;20028;-66
2022/07/30 04:56:22;;;;;;;3.00;2.50;;;;;;;26.12;43.60;101633.41;5056727;28;20029;-65
2022/07/30 04:58:49;;;;;;;3.95;2.65;;;;;;;26.12;43.32;101635.19;5053622;28;20043;-65
2022/07/30 05:01:21;;;;;;;2.85;2.45;;;;;;;26.11;43.49;101633.44;5051593;28;20021;-66
2022/07/30 05:03:50;;;;;;;3.20;2.50;;;;;;;26.09;43.57;101633.53;5062451;28;20017;-65
2022/07/30 05:06:16;;;;;;;3.20;2.50;;;;;;;26.06;43.51;101628.28;5074343;28;20577;-65
2022/07/30 05:08:41;;;;;;;3.63;2.60;;;;;;;26.06;43.68;101630.09;5066713;28;20029;-65
2022/07/30 05:11:11;;;;;;;3.35;2.72;;;;;;;26.08;43.48;101630.91;5057238;28;20017;-66
2022/07/30 05:13:36;;;;;;;3.20;2.50;;;;;;;26.08;43.50;101634.47;5075778;28;20028;-66
2022/07/30 05:16:02;;;;;;;4.00;2.60;;;;;;;26.07;43.44;101640.72;5067534;28;20044;-66
2022/07/30 05:18:27;;;;;;;3.28;2.80;;;;;;;26.10;43.37;101637.94;5057656;28;20026;-66
2022/07/30 05:20:53;;;;;;;3.60;2.30;;;;;;;26.10;43.48;101645.97;5069837;28;20035;-65
2022/07/30 05:23:18;;;;;;;3.33;2.60;;;;;;;26.05;43.54;101636.34;5072814;28;20036;-65
2022/07/30 05:25:43;;;;;;;4.03;2.55;;;;;;;26.08;43.51;101647.81;5056529;28;20119;-65
2022/07/30 05:28:09;;;;;;;3.08;2.40;;;;;;;26.06;43.40;101646.13;5061229;28;20467;-65
2022/07/30 05:30:34;;;;;;;2.83;2.40;;;;;;;26.08;43.31;101642.47;5061823;28;20507;-65
2022/07/30 05:32:59;;;;;;;3.13;2.33;;;;;;;26.08;43.42;101645.16;5056273;28;20040;-66
2022/07/30 05:35:25;;;;;;;2.80;2.50;;;;;;;26.07;43.56;101634.50;5075417;28;20040;-66
2022/07/30 05:37:50;;;;;;;2.47;2.22;;;;;;;26.08;43.23;101638.94;5075719;28;20557;-66
2022/07/30 05:40:15;;;;;;;3.10;2.40;;;;;;;26.06;43.39;101644.31;5067351;28;20120;-66
2022/07/30 05:42:41;;;;;;;3.60;2.50;;;;;;;26.06;43.46;101651.47;5063814;28;20057;-66
2022/07/30 05:45:07;;;;;;;3.05;2.30;;;;;;;26.06;43.35;101652.34;5070686;28;20130;-66
2022/07/30 05:47:32;;;;;;;2.97;2.35;;;;;;;26.06;43.70;101648.78;5057757;28;20044;-66
2022/07/30 05:49:57;;;;;;;2.80;2.38;;;;;;;26.08;43.51;101647.81;5063703;28;20398;-66
2022/07/30 05:52:23;;;;;;;2.58;2.35;;;;;;;26.11;43.46;101654.81;5064270;28;20598;-65
2022/07/30 05:54:48;;;;;;;3.33;2.40;;;;;;;26.10;43.36;101656.66;5055092;28;20115;-66
2022/07/30 05:57:14;;;;;;;3.55;2.40;;;;;;;26.10;43.50;101661.13;5066659;28;20484;-66
2022/07/30 05:59:39;;;;;;;3.88;2.50;;;;;;;26.11;43.40;101660.19;5063832;28;20499;-66
2022/07/30 06:02:05;;;;;;;2.92;2.40;;;;;;;26.10;43.36;101655.78;5064669;28;20025;-66
2022/07/30 06:04:31;;;;;;;3.10;2.33;;;;;;;26.08;43.48;101660.31;5062408;28;20398;-65
2022/07/30 06:06:56;;;;;;;2.63;2.22;;;;;;;26.08;43.56;101671.00;5054599;28;20028;-66
2022/07/30 06:09:21;;;;;;;2.30;2.10;;;;;;;26.07;43.57;101671.91;5063008;28;20036;-66
2022/07/30 06:11:47;;;;;;;3.08;2.35;;;;;;;26.08;43.59;101671.00;5072126;28;20056;-66
2022/07/30 06:14:12;;;;;;;3.50;2.25;;;;;;;26.11;43.21;101671.75;5060106;28;20024;-66
2022/07/30 06:16:37;;;;;;;3.72;2.22;;;;;;;26.13;43.24;101661.88;5064024;28;20032;-66
2022/07/30 06:19:03;;;;;;;3.42;2.55;;;;;;;26.15;43.33;101664.50;5061161;28;20029;-66
2022/07/30 06:21:28;;;;;;;2.78;2.30;;;;;;;26.15;43.53;101672.50;5059865;28;20438;-65
2022/07/30 06:23:54;;;;;;;2.67;2.40;;;;;;;26.14;43.36;101678.78;5057464;28;20530;-65
2022/07/30 06:26:19;;;;;;;2.72;2.30;;;;;;;26.14;43.32;101678.78;5071558;28;20043;-65
2022/07/30 06:28:45;;;;;;;2.72;2.33;;;;;;;26.14;43.49;101681.44;5071342;28;20029;-66
2022/07/30 06:31:10;;;;;;;3.08;2.30;;;;;;;26.14;43.46;101678.78;5065696;28;20132;-66
2022/07/30 06:33:35;;;;;;;3.15;2.20;;;;;;;26.12;43.24;101685.97;5061055;28;20029;-63
2022/07/30 06:36:01;;;;;;;3.25;2.38;;;;;;;26.15;43.34;101692.09;5061711;28;20116;-63
2022/07/30 06:38:26;;;;;;;3.33;2.22;;;;;;;26.14;43.21;101685.00;5055083;28;20029;-64
2022/07/30 06:40:52;;;;;;;2.83;2.20;;;;;;;26.15;43.33;101683.19;5061376;28;20432;-64
2022/07/30 06:43:19;;;;;;;3.40;2.20;;;;;;;26.14;43.46;101690.34;5069339;28;20044;-64
2022/07/30 06:45:44;;;;;;;2.60;2.28;;;;;;;26.15;43.21;101694.75;5059909;28;20045;-63
2022/07/30 06:48:09;;;;;;;2.55;2.20;;;;;;;26.17;43.23;101681.31;5068336;28;20028;-64
2022/07/30 06:50:36;;;;;;;2.88;2.30;;;;;;;26.17;43.24;101676.84;5058232;28;20037;-64
2022/07/30 06:53:01;;;;;;;2.65;2.10;;;;;;;26.20;43.45;101676.75;5058062;28;20135;-63
2022/07/30 06:55:26;;;;;;;2.63;2.22;;;;;;;26.23;43.13;101673.06;5063623;28;20115;-64
2022/07/30 06:57:52;;;;;;;2.95;2.38;;;;;;;26.24;43.55;101673.03;5063161;28;20498;-64
2022/07/30 07:00:17;;;;;;;3.13;2.40;;;;;;;26.25;43.55;101679.25;5062593;28;20040;-64
2022/07/30 07:02:42;;;;;;;2.55;2.20;;;;;;;26.25;43.45;101677.47;5058671;28;20033;-64
2022/07/30 07:05:08;;;;;;;2.70;2.20;;;;;;;26.22;43.50;101679.38;5060526;28;20123;-62
2022/07/30 07:07:34;;;;;;;2.55;2.25;;;;;;;26.28;43.48;101675.63;5062021;28;20024;-64
2022/07/30 07:10:00;;;;;;;2.45;2.17;;;;;;;26.29;43.71;101680.03;5060350;28;20501;-63
2022/07/30 07:12:25;;;;;;;3.38;2.22;;;;;;;26.30;43.73;101690.66;5064521;28;20056;-63
2022/07/30 07:14:50;;;;;;;2.70;2.20;;;;;;;26.32;43.51;101682.56;5066716;28;20078;-62
2022/07/30 07:17:16;;;;;;;3.00;2.17;;;;;;;26.31;43.69;101680.81;5063064;28;20386;-62
2022/07/30 07:19:42;;;;;;;2.38;2.10;;;;;;;26.32;43.76;101687.91;5061392;28;20039;-63
2022/07/30 07:22:07;;;;;;;3.00;2.30;;;;;;;26.31;43.59;101691.53;5062138;28;20029;-63
2022/07/30 07:24:33;;;;;;;4.28;2.22;;;;;;;26.15;43.96;101689.41;5052454;28;20037;-62
2022/07/30 07:26:58;;;;;;;2.72;2.03;;;;;;;26.14;44.42;101686.78;5067123;28;20017;-62
2022/07/30 07:29:23;;;;;;;6.00;2.35;;;;;;;26.21;44.53;101697.19;5061780;28;20505;-66
2022/07/30 07:31:49;;;;;;;6.53;2.22;;;;;;;26.27;44.38;101687.22;5060824;28;20536;-66
2022/07/30 07:34:14;;;;;;;6.57;2.40;;;;;;;26.34;44.36;101694.97;5048438;28;20112;-65
2022/07/30 07:36:40;;;;;;;12.77;2.80;;;;;;;26.34;44.33;101697.63;5049955;28;20025;-66
2022/07/30 07:39:08;;;;;;;5.68;2.60;;;;;;;26.34;44.28;101696.75;5049833;28;20102;-66
2022/07/30 07:41:35;;;;;;;6.03;2.50;;;;;;;26.35;44.45;101703.84;5049753;28;20109;-66
2022/07/30 07:44:01;;;;;;;8.68;2.50;;;;;;;26.34;44.22;101702.09;5046734;28;20033;-66
2022/07/30 07:46:26;;;;;;;9.43;2.90;;;;;;;26.33;44.48;101703.91;5049504;28;20064;-66
2022/07/30 07:48:52;;;;;;;11.18;2.67;;;;;;;26.34;44.37;101712.81;5049756;28;20416;-61
2022/07/30 07:51:17;;;;;;;10.95;2.60;;;;;;;26.38;44.31;101701.03;5049463;28;20033;-63
2022/07/30 07:53:42;;;;;;;5.15;2.90;;;;;;;26.38;44.13;101698.38;5048385;28;20055;-66
2022/07/30 07:56:08;;;;;;;7.97;2.47;;;;;;;26.43;43.83;101705.28;5050305;28;20096;-68
2022/07/30 07:58:34;;;;;;;6.72;2.42;;;;;;;26.40;44.25;101702.75;5067947;28;20642;-68
2022/07/30 08:00:59;;;;;;;16.85;2.80;;;;;;;26.47;44.56;101698.88;5057119;28;20390;-67
2022/07/30 08:03:24;;;;;;;6.30;2.88;;;;;;;26.52;44.63;101706.72;5048295;28;20052;-67
2022/07/30 08:05:50;;;;;;;6.65;2.47;;;;;;;26.27;45.97;101709.50;5066411;28;20482;-62
2022/07/30 08:08:15;;;;;;;7.32;2.20;;;;;;;26.43;48.52;101707.09;5060773;28;20040;-62
2022/07/30 08:10:40;;;;;;;13.25;2.75;;;;;;;26.48;46.78;101707.75;5061771;28;20371;-67
2022/07/30 08:13:06;;;;;;;11.07;2.90;;;;;;;26.53;46.20;101712.00;5059747;28;20029;-67
2022/07/30 08:15:32;;;;;;;13.48;2.95;;;;;;;26.56;46.18;101706.53;5052354;28;20502;-70
2022/07/30 08:17:57;;;;;;;14.18;3.13;;;;;;;26.53;46.77;101712.00;5055032;28;20029;-67
2022/07/30 08:20:23;;;;;;;6.10;3.00;;;;;;;26.65;46.13;101714.19;5058778;28;20028;-67
2022/07/30 08:22:49;;;;;;;11.15;3.03;;;;;;;26.70;45.97;101706.00;5057958;28;20024;-67
2022/07/30 08:25:15;;;;;;;11.18;3.15;;;;;;;26.68;45.77;101707.84;5052539;28;20388;-67
2022/07/30 08:27:42;;;;;;;7.15;3.28;;;;;;;26.71;45.74;101701.53;5056770;28;20040;-67
2022/07/30 08:30:09;;;;;;;9.30;3.20;;;;;;;26.71;45.92;101698.84;5056316;28;20028;-67
2022/07/30 08:32:36;;;;;;;7.25;2.70;;;;;;;26.74;45.83;101712.06;5052420;28;20386;-65
2022/07/30 08:35:03;;;;;;;7.18;3.08;;;;;;;26.64;46.32;101712.47;5049943;28;20054;-63
2022/07/30 08:37:28;;;;;;;9.25;3.20;;;;;;;26.80;46.10;101701.13;5062065;28;20028;-62
2022/07/30 08:39:54;;;;;;;9.10;3.30;;;;;;;27.01;46.11;101705.66;5048305;28;20033;-66
2022/07/30 08:42:20;;;;;;;8.18;3.67;;;;;;;26.95;46.26;101704.09;5060718;28;20032;-73
2022/07/30 08:44:47;;;;;;;12.23;3.70;;;;;;;26.99;47.57;101705.69;5054924;28;20044;-70
2022/07/30 08:47:17;;;;;;;6.03;3.70;;;;;;;27.11;46.97;101700.75;5051958;28;20037;-67
2022/07/30 08:49:47;;;;;;;11.68;3.63;;;;;;;27.19;47.18;101704.88;5069839;28;20047;-67
2022/07/30 08:52:12;;;;;;;8.93;3.47;;;;;;;27.24;47.29;101705.53;5042939;28;20036;-66
2022/07/30 08:54:39;;;;;;;6.80;3.42;;;;;;;27.19;47.58;101696.84;5065000;28;20036;-65
2022/07/30 08:57:05;;;;;;;11.43;3.45;;;;;;;27.29;47.97;101706.22;5068792;28;20040;-64
2022/07/30 08:59:31;;;;;;;6.72;3.50;;;;;;;27.33;47.95;101704.25;5059481;28;20040;-67
2022/07/30 09:01:57;;;;;;;7.20;3.45;;;;;;;27.31;47.64;101708.81;5064754;28;20086;-63
2022/07/30 09:04:23;;;;;;;6.25;3.50;;;;;;;27.32;47.34;101703.41;5053489;28;20021;-73
2022/07/30 09:06:48;;;;;;;6.88;3.50;;;;;;;27.29;48.41;101718.72;5050201;28;20032;-73
2022/07/30 09:09:14;;;;;;;8.48;3.45;;;;;;;27.34;47.81;101716.72;5048634;28;20144;-68
2022/07/30 09:11:39;;;;;;;9.57;3.45;;;;;;;27.41;48.27;101710.16;5048173;28;20495;-68
2022/07/30 09:14:10;;;;;;;9.65;3.53;;;;;;;27.46;48.22;101703.66;5062257;28;20063;-69
2022/07/30 09:16:35;;;;;;;5.72;3.25;;;;;;;27.36;48.39;101707.69;5056386;28;20039;-67
2022/07/30 09:19:17;;;;;;;9.07;3.33;;;;;;;27.46;47.87;101713.50;5070037;28;20032;-66
2022/07/30 09:21:57;;;;;;;6.70;3.30;;;;;;;27.50;48.43;101715.13;5049970;28;20025;-68
2022/07/30 09:24:22;;;;;;;9.30;3.65;;;;;;;27.52;47.59;101707.03;5051865;28;20028;-68
2022/07/30 09:26:57;;;;;;;8.32;3.50;;;;;;;27.51;48.56;101695.44;5057549;28;20032;-69
2022/07/30 09:29:26;;;;;;;5.63;2.97;;;;;;;27.57;47.85;101697.03;5063422;28;20017;-68
2022/07/30 09:31:54;;;;;;;8.38;3.33;;;;;;;27.59;47.96;101696.00;5060130;28;20151;-68
2022/07/30 09:34:24;;;;;;;6.25;3.42;;;;;;;27.56;48.16;101695.28;5053608;28;20029;-68
2022/07/30 09:36:50;;;;;;;9.38;3.63;;;;;;;27.59;48.11;101704.03;5059828;28;20368;-66
2022/07/30 09:39:36;;;;;;;5.45;3.10;;;;;;;27.64;48.46;101703.81;5069867;28;20036;-68
2022/07/30 09:42:15;;;;;;;9.45;3.60;;;;;;;27.62;47.93;101711.06;5061771;28;20028;-68
2022/07/30 09:44:40;;;;;;;9.48;3.28;;;;;;;27.75;47.18;101705.06;5056519;28;20133;-67
2022/07/30 09:47:06;;;;;;;7.55;3.30;;;;;;;27.77;46.80;101696.97;5062602;28;20033;-74
2022/07/30 09:49:31;;;;;;;7.32;3.20;;;;;;;27.87;46.58;101697.44;5059777;28;20044;-73
2022/07/30 09:51:57;;;;;;;13.38;3.47;;;;;;;27.93;46.49;101694.47;5060055;28;20079;-66
2022/07/30 09:54:41;;;;;;;6.28;3.45;;;;;;;27.92;46.55;101695.41;5068108;28;20032;-66
2022/07/30 09:57:07;;;;;;;8.85;3.33;;;;;;;27.98;46.24;101692.47;5070045;28;20043;-66
2022/07/30 09:59:33;;;;;;;9.35;3.20;;;;;;;28.04;46.24;101693.06;5078822;28;20072;-68
2022/07/30 10:01:58;;;;;;;9.82;2.92;;;;;;;28.11;45.79;101699.00;5080019;28;20506;-65
2022/07/30 10:04:29;;;;;;;5.07;3.00;;;;;;;28.18;44.66;101701.34;5075154;28;20032;-66
2022/07/30 10:06:56;;;;;;;6.38;3.20;;;;;;;28.17;44.26;101706.78;5075939;28;20047;-66
2022/07/30 10:09:29;;;;;;;7.70;3.30;;;;;;;28.17;44.22;101709.47;5072224;28;20067;-65
2022/07/30 10:11:56;;;;;;;9.43;3.50;;;;;;;28.17;43.68;101701.44;5075898;28;20043;-68
2022/07/30 10:14:27;;;;;;;8.48;3.40;;;;;;;28.28;43.60;101700.91;5067572;28;20036;-68
2022/07/30 10:16:53;;;;;;;10.98;3.58;;;;;;;28.34;43.41;101697.94;5064750;28;20047;-68
2022/07/30 10:19:19;;;;;;;7.22;3.28;;;;;;;28.28;43.38;101699.09;5068649;28;20058;-64
2022/07/30 10:21:45;;;;;;;6.60;3.10;;;;;;;28.18;43.17;101693.28;5021340;28;20099;-66
2022/07/30 10:24:11;;;;;;;7.38;3.33;;;;;;;28.19;43.20;101692.34;5029197;28;20541;-66
2022/07/30 10:26:37;;;;;;;8.95;3.55;;;;;;;28.20;42.99;101703.94;5024129;28;20234;-64
2022/07/30 10:29:03;;;;;;;6.72;3.17;;;;;;;28.25;43.83;101704.59;5022475;28;20022;-69
2022/07/30 10:31:29;;;;;;;11.88;3.28;;;;;;;28.28;43.23;101700.91;5023619;28;20040;-69
2022/07/30 10:33:56;;;;;;;7.70;3.15;;;;;;;28.30;43.07;101693.69;5031632;28;20029;-69
2022/07/30 10:36:23;;;;;;;9.57;3.58;;;;;;;28.27;42.70;101707.22;5033519;28;20037;-69
2022/07/30 10:38:49;;;;;;;8.43;3.28;;;;;;;28.27;42.77;101700.03;5045986;28;20060;-69
2022/07/30 10:41:41;;;;;;;8.70;3.50;;;;;;;28.40;42.45;101703.00;5040917;28;20463;-69
2022/07/30 10:44:28;;;;;;;10.77;3.53;;;;;;;28.46;43.07;101706.28;5020504;28;20029;-69
2022/07/30 10:46:53;;;;;;;10.68;3.65;;;;;;;28.49;42.88;101705.25;5027881;28;20092;-70
2022/07/30 10:49:18;;;;;;;8.90;3.80;;;;;;;28.50;42.54;101707.84;5026071;28;20037;-69
2022/07/30 10:51:49;;;;;;;5.80;3.10;;;;;;;28.50;42.78;101715.03;5025207;28;20045;-69
2022/07/30 10:54:32;;;;;;;12.95;3.53;;;;;;;28.47;42.62;101715.19;5038755;28;20030;-69
2022/07/30 10:57:18;;;;;;;8.00;3.45;;;;;;;28.37;42.44;101706.69;5037147;28;20427;-69
2022/07/30 10:59:59;;;;;;;9.20;3.80;;;;;;;28.39;42.00;101709.31;5025236;28;20090;-69
2022/07/30 11:02:26;;;;;;;11.15;3.30;;;;;;;28.33;42.02;101714.97;5022723;28;20025;-69
2022/07/30 11:05:16;;;;;;;9.45;3.40;;;;;;;28.30;42.34;101710.59;5019712;28;20048;-69
2022/07/30 11:07:41;;;;;;;7.82;3.55;;;;;;;28.34;42.05;101712.22;5020941;28;20080;-69
2022/07/30 11:10:39;;;;;;;9.07;3.72;;;;;;;28.35;42.04;101713.97;5022377;28;20026;-69
2022/07/30 11:13:08;;;;;;;6.03;3.17;;;;;;;28.40;42.26;101698.53;5033375;28;20036;-69
2022/07/30 11:15:58;;;;;;;9.50;3.38;;;;;;;28.51;41.83;101704.22;5035438;28;20013;-69
2022/07/30 11:18:25;;;;;;;9.30;3.65;;;;;;;28.55;41.39;101704.94;5022111;28;20805;-69
2022/07/30 11:21:23;;;;;;;6.85;3.33;;;;;;;28.56;41.52;101707.56;5028497;28;20059;-70
2022/07/30 11:23:49;;;;;;;7.57;3.10;;;;;;;28.54;41.72;101711.28;5030314;28;20041;-69
2022/07/30 11:26:45;;;;;;;5.43;3.10;;;;;;;28.46;41.67;101702.72;5034583;28;20044;-69
2022/07/30 11:29:37;;;;;;;20.17;4.57;;;;;;;28.43;41.65;101706.41;5020484;28;20085;-69